Aérodrome :
LOGIN :

S'inscrire | Disclaimer

   EN    FR    IT 

 










Légende :    VFR   VFR Marginal   IFR   IFR Intensif   IFR Très Intensif
Visi : 
Plafond : 
>= 8 km
>= 3000ft
5 à 8 km
1000 à 3000 ft
1500m à 5 km
500 à 1000 ft
800 à 1500m
200 à 500 ft
< 800m
< 200 ft
Symboles :   Orages  Brouillard  Fortes neiges  Fortes précipitations  Vent > 20 kt
SIGMETs :   Divers  Orages  Givrage  Turbulence  Onde Orograph.  Cendres Volcan.







- Altitude de l'aérodrome : 24 ft
- Code IATA : FAO


LPFR - Faro

DERNIER METAR :
  • 241000Z 13005KT 090V150 CAVOK 30/15 Q1018

METARs EXPIRÉS :
  • 240930Z 16005KT CAVOK 28/18 Q1018
  • 240900Z 20007KT CAVOK 26/20 Q1018
  • 240830Z 16005KT 130V190 CAVOK 27/20 Q1018
  • 240800Z 19009KT 160V220 CAVOK 26/19 Q1018
  • 240730Z 17004KT CAVOK 28/18 Q1017
  • 240700Z 28006KT CAVOK 27/16 Q1017

TAF TAF LPFR
Valide du 23 à 18h jusqu'au 24 à 18h UTC


231700Z 2318/2418 27015KT CAVOK
BECMG 2319/2321 31010KT
BECMG 2323/2402 VRB03KT
PROB40 2400/2418 34012KT
Pas de NOTAMs connus pour ce terrain.



MET'MAP, la Météo Aéronautique d'un coup d'oeil ! - Copyright ORBIFLY Décembre 2007 - Disclaimer

ORBIFLY MET'MAP TEAM :

Programmation & Développement : Alexandra Zaïnal
Conception & Développement : Baudouin d'Aumeries
Co-Programmation & Développement : Marc-Olivier Méhu
Soutien technique & logistique : Manuel Goepfert

Contact : metmap@orbifly.com




SOURCES & CREDITS :

   NOAA